createdAt,value
2018-06-04T00:03:08.839Z,4.63
2018-06-04T00:06:33.651Z,4.37
2018-06-04T00:09:59.251Z,3.87
2018-06-04T00:13:24.056Z,4.43
2018-06-04T00:16:48.417Z,4.30
2018-06-04T00:20:13.226Z,4.40
2018-06-04T00:23:37.879Z,4.40
2018-06-04T00:27:02.767Z,3.63
2018-06-04T00:30:27.669Z,4.00
2018-06-04T00:33:52.466Z,6.07
2018-06-04T00:37:17.398Z,4.70
2018-06-04T00:40:42.207Z,4.13
2018-06-04T00:44:06.950Z,3.97
2018-06-04T00:47:31.706Z,3.90
2018-06-04T00:50:57.066Z,4.57
2018-06-04T00:54:21.506Z,5.43
2018-06-04T00:57:46.447Z,5.27
2018-06-04T01:01:11.194Z,4.50
2018-06-04T01:04:36.128Z,5.13
2018-06-04T01:08:00.978Z,4.60
2018-06-04T01:11:25.729Z,5.40
2018-06-04T01:14:50.457Z,5.30
2018-06-04T01:18:15.216Z,4.33
2018-06-04T01:21:39.906Z,5.17
2018-06-04T01:25:04.827Z,5.47
2018-06-04T01:28:29.649Z,4.87
2018-06-04T01:31:55.727Z,6.57
2018-06-04T01:35:20.727Z,5.47
2018-06-04T01:38:45.771Z,5.37
2018-06-04T01:42:10.780Z,5.50
2018-06-04T01:45:35.631Z,4.67
2018-06-04T01:49:00.471Z,5.63
2018-06-04T01:52:25.645Z,7.07
2018-06-04T01:55:50.459Z,5.50
2018-06-04T01:59:16.323Z,5.70
2018-06-04T02:02:41.241Z,7.13
2018-06-04T02:06:06.125Z,6.70
2018-06-04T02:09:31.435Z,8.10
2018-06-04T02:12:56.431Z,9.67
2018-06-04T02:16:21.257Z,9.53
2018-06-04T02:19:46.225Z,7.83
2018-06-04T02:23:10.792Z,8.50
2018-06-04T02:26:35.609Z,9.47
2018-06-04T02:30:00.450Z,8.93
2018-06-04T02:33:25.207Z,8.60
2018-06-04T02:36:49.999Z,9.00
2018-06-04T02:40:14.812Z,9.57
2018-06-04T02:43:39.616Z,10.37
2018-06-04T02:47:04.555Z,9.93
2018-06-04T02:50:29.351Z,9.83
2018-06-04T02:53:54.074Z,10.07
2018-06-04T02:57:18.870Z,10.47
2018-06-04T03:00:43.637Z,9.47
2018-06-04T03:04:08.412Z,9.20
2018-06-04T03:07:33.205Z,10.80
2018-06-04T03:10:58.046Z,9.77
2018-06-04T03:14:22.922Z,10.63
2018-06-04T03:17:47.634Z,9.13
2018-06-04T03:21:12.373Z,10.23
2018-06-04T03:24:37.145Z,8.60
2018-06-04T03:28:02.008Z,9.70
2018-06-04T03:31:26.727Z,8.77
2018-06-04T03:34:51.584Z,8.60
2018-06-04T03:38:16.245Z,8.23
2018-06-04T03:41:40.932Z,9.27
2018-06-04T03:45:05.814Z,11.17
2018-06-04T03:48:30.531Z,11.77
2018-06-04T03:51:55.172Z,10.33
2018-06-04T03:55:20.064Z,9.60
2018-06-04T03:58:45.143Z,10.10
2018-06-04T04:02:10.062Z,9.00
2018-06-04T04:05:34.876Z,9.70
2018-06-04T04:08:59.646Z,9.57
2018-06-04T04:12:24.303Z,10.13
2018-06-04T04:15:49.080Z,8.47
2018-06-04T04:19:14.032Z,8.40
2018-06-04T04:22:38.864Z,8.43
2018-06-04T04:26:03.766Z,8.63
2018-06-04T04:29:28.553Z,8.33
2018-06-04T04:32:53.174Z,8.23
2018-06-04T04:36:17.992Z,8.00
2018-06-04T04:39:42.455Z,8.47
2018-06-04T04:43:07.106Z,10.37
2018-06-04T04:46:31.840Z,8.93
2018-06-04T04:49:56.573Z,8.40
2018-06-04T04:53:21.500Z,7.87
2018-06-04T04:56:46.194Z,8.00
2018-06-04T05:00:10.992Z,8.20
2018-06-04T05:03:35.450Z,7.23
2018-06-04T05:07:00.220Z,8.97
2018-06-04T05:10:25.244Z,7.43
2018-06-04T05:13:49.983Z,7.57
2018-06-04T05:17:14.910Z,8.30
2018-06-04T05:20:39.593Z,7.53
2018-06-04T05:24:04.645Z,6.83
2018-06-04T05:27:30.134Z,7.30
2018-06-04T05:30:54.849Z,7.63
2018-06-04T05:34:19.673Z,9.33
2018-06-04T05:37:44.661Z,6.40
2018-06-04T05:41:09.443Z,6.57
2018-06-04T05:44:34.250Z,7.47
2018-06-04T05:47:58.871Z,6.63
2018-06-04T05:51:23.848Z,5.73
2018-06-04T05:54:48.623Z,6.67
2018-06-04T05:58:13.508Z,8.17
2018-06-04T06:01:38.620Z,6.23
2018-06-04T06:05:03.365Z,6.57
2018-06-04T06:08:28.123Z,7.40
2018-06-04T06:11:53.677Z,5.87
2018-06-04T06:15:18.472Z,6.13
2018-06-04T06:18:43.299Z,6.00
2018-06-04T06:22:07.849Z,6.17
2018-06-04T06:25:32.674Z,6.37
2018-06-04T06:28:57.584Z,5.93
2018-06-04T06:32:22.398Z,6.10
2018-06-04T06:35:47.184Z,6.20
2018-06-04T06:39:12.088Z,8.20
2018-06-04T06:42:36.819Z,7.53
2018-06-04T06:46:01.589Z,5.93
2018-06-04T06:49:26.404Z,8.30
2018-06-04T06:52:51.113Z,6.60
2018-06-04T06:56:15.420Z,6.70
2018-06-04T06:59:40.097Z,6.40
2018-06-04T07:03:04.767Z,7.33
2018-06-04T07:06:29.205Z,6.73
2018-06-04T07:09:53.907Z,7.30
2018-06-04T07:13:18.554Z,6.67
2018-06-04T07:16:43.262Z,6.77
2018-06-04T07:20:07.900Z,8.03
2018-06-04T07:23:32.777Z,6.93
2018-06-04T07:26:57.511Z,7.10
2018-06-04T07:30:22.931Z,7.67
2018-06-04T07:33:48.049Z,8.70
2018-06-04T07:37:12.723Z,7.87
2018-06-04T07:40:37.419Z,7.27
2018-06-04T07:44:02.356Z,6.30
2018-06-04T07:47:32.138Z,6.20
2018-06-04T07:50:56.861Z,7.20
2018-06-04T07:54:21.695Z,6.83
2018-06-04T07:57:47.441Z,8.47
2018-06-04T08:01:12.231Z,10.03
2018-06-04T08:04:37.140Z,7.77
2018-06-04T08:08:01.601Z,7.03
2018-06-04T08:11:26.008Z,7.73
2018-06-04T08:14:51.830Z,7.00
2018-06-04T08:18:16.851Z,8.03
2018-06-04T08:21:41.697Z,8.23
2018-06-04T08:25:06.566Z,7.23
2018-06-04T08:28:31.676Z,9.93
2018-06-04T08:31:56.418Z,8.47
2018-06-04T08:35:20.957Z,7.93
2018-06-04T08:38:45.331Z,7.33
2018-06-04T08:42:10.133Z,7.53
2018-06-04T08:45:34.978Z,6.90
2018-06-04T08:48:59.685Z,7.47
2018-06-04T08:52:24.350Z,6.43
2018-06-04T08:55:49.014Z,8.17
2018-06-04T08:59:14.209Z,7.93
2018-06-04T09:04:48.182Z,7.83
2018-06-04T09:08:13.197Z,7.90
2018-06-04T09:11:38.475Z,9.43
2018-06-04T09:15:03.174Z,8.17
2018-06-04T09:18:27.813Z,7.63
2018-06-04T09:21:52.566Z,7.37
2018-06-04T09:25:16.920Z,7.47
2018-06-04T09:28:41.547Z,6.80
2018-06-04T09:32:06.392Z,6.77
2018-06-04T09:35:31.096Z,6.37
2018-06-04T09:38:55.796Z,7.43
2018-06-04T09:42:20.653Z,7.37
2018-06-04T09:45:45.895Z,8.47
2018-06-04T09:49:10.698Z,8.90
2018-06-04T09:52:35.493Z,7.90
2018-06-04T09:56:00.116Z,7.53
2018-06-04T09:59:24.856Z,9.93
2018-06-04T10:02:49.452Z,8.00
2018-06-04T10:06:14.120Z,10.33
2018-06-04T10:09:39.414Z,7.77
2018-06-04T10:13:03.792Z,7.33
2018-06-04T10:16:28.569Z,7.30
2018-06-04T10:19:53.291Z,8.27
2018-06-04T10:23:17.988Z,8.00
2018-06-04T10:26:42.694Z,6.47
2018-06-04T10:30:07.567Z,6.60
2018-06-04T10:33:32.855Z,7.60
2018-06-04T10:36:57.655Z,8.37
2018-06-04T10:40:22.590Z,6.63
2018-06-04T10:43:46.973Z,6.97
2018-06-04T10:47:11.731Z,6.60
2018-06-04T10:50:36.425Z,7.10
2018-06-04T10:54:01.132Z,7.00
2018-06-04T10:57:26.459Z,7.30
2018-06-04T11:00:51.450Z,6.60
2018-06-04T11:04:16.194Z,7.27
2018-06-04T11:07:40.955Z,6.07
2018-06-04T11:11:06.382Z,6.60
2018-06-04T11:14:32.163Z,6.17
2018-06-04T11:17:57.110Z,6.67
2018-06-04T11:21:22.048Z,6.57
2018-06-04T11:24:46.816Z,5.87
2018-06-04T11:28:12.649Z,6.80
2018-06-04T11:31:37.920Z,6.00
2018-06-04T11:35:05.018Z,7.33
2018-06-04T11:38:29.811Z,10.00
2018-06-04T11:41:55.510Z,5.73
2018-06-04T11:45:20.806Z,5.77
2018-06-04T11:48:45.451Z,6.13
2018-06-04T11:52:10.246Z,5.33
2018-06-04T11:55:34.960Z,5.97
2018-06-04T11:58:59.674Z,5.23
2018-06-04T12:02:25.938Z,5.73
2018-06-04T12:05:50.775Z,8.40
2018-06-04T12:09:15.542Z,6.73
2018-06-04T12:12:40.286Z,8.47
2018-06-04T12:16:06.190Z,5.20
2018-06-04T12:19:30.941Z,7.57
2018-06-04T12:22:55.604Z,5.30
2018-06-04T12:26:20.240Z,5.77
2018-06-04T12:29:45.032Z,5.43
2018-06-04T12:33:09.710Z,5.40
2018-06-04T12:36:34.740Z,5.53
2018-06-04T12:40:00.084Z,5.70
2018-06-04T12:43:24.844Z,5.97
2018-06-04T12:46:49.478Z,5.50
2018-06-04T12:50:14.330Z,5.30
2018-06-04T12:53:39.064Z,6.20
2018-06-04T12:57:03.350Z,6.30
2018-06-04T13:00:28.030Z,6.57
2018-06-04T13:03:52.386Z,6.07
2018-06-04T13:07:17.126Z,5.80
2018-06-04T13:10:42.898Z,5.70
2018-06-04T13:14:07.899Z,5.93
2018-06-04T13:17:33.180Z,5.77
2018-06-04T13:20:57.886Z,6.30
2018-06-04T13:24:23.603Z,6.50
2018-06-04T13:27:49.151Z,6.03
2018-06-04T13:31:14.288Z,8.40
2018-06-04T13:34:38.640Z,6.10
2018-06-04T13:38:04.104Z,6.00
2018-06-04T13:41:28.803Z,5.63
2018-06-04T13:44:53.180Z,6.33
2018-06-04T13:48:17.950Z,5.90
2018-06-04T13:51:42.681Z,5.87
2018-06-04T13:55:06.975Z,5.73
2018-06-04T13:58:34.648Z,6.13
2018-06-04T14:01:59.326Z,5.20
2018-06-04T14:05:24.019Z,5.13
2018-06-04T14:08:48.696Z,5.43
2018-06-04T14:12:13.362Z,5.43
2018-06-04T14:15:38.136Z,7.07
2018-06-04T14:19:03.154Z,5.43
2018-06-04T14:22:27.983Z,5.10
2018-06-04T14:25:52.862Z,5.40
2018-06-04T14:29:17.590Z,4.97
2018-06-04T14:32:42.407Z,5.30
2018-06-04T14:36:07.115Z,6.10
2018-06-04T14:39:31.981Z,5.53
2018-06-04T14:42:56.754Z,7.37
2018-06-04T14:46:21.518Z,6.57
2018-06-04T14:49:46.255Z,5.63
2018-06-04T14:53:10.616Z,6.13
2018-06-04T14:56:35.364Z,5.50
2018-06-04T15:00:02.174Z,6.03
2018-06-04T15:03:26.856Z,6.93
2018-06-04T15:06:51.588Z,7.10
2018-06-04T15:10:16.369Z,6.60
2018-06-04T15:13:41.058Z,6.20
2018-06-04T15:17:05.830Z,6.50
2018-06-04T15:20:30.131Z,7.73
2018-06-04T15:23:54.786Z,6.57
2018-06-04T15:27:19.511Z,8.90
2018-06-04T15:30:44.212Z,5.33
2018-06-04T15:34:09.711Z,7.90
2018-06-04T15:37:34.952Z,7.43
2018-06-04T15:40:59.536Z,6.27
2018-06-04T15:44:24.213Z,4.40
2018-06-04T15:47:49.046Z,5.97
2018-06-04T15:51:13.698Z,5.73
2018-06-04T15:54:38.402Z,5.10
2018-06-04T15:58:04.213Z,5.37
2018-06-04T16:01:29.439Z,9.57
2018-06-04T16:04:54.136Z,5.50
2018-06-04T16:08:19.197Z,4.90
2018-06-04T16:11:43.900Z,8.23
2018-06-04T16:15:08.493Z,6.13
2018-06-04T16:18:34.010Z,7.20
2018-06-04T16:21:59.439Z,7.83
2018-06-04T16:25:26.999Z,5.70
2018-06-04T16:28:53.311Z,8.37
2018-06-04T16:32:18.345Z,7.87
2018-06-04T16:35:43.233Z,8.97
2018-06-04T16:39:10.524Z,6.97
2018-06-04T16:42:36.832Z,5.90
2018-06-04T16:46:02.209Z,6.30
2018-06-04T16:49:26.964Z,4.00
2018-06-04T16:52:51.726Z,5.20
2018-06-04T16:59:51.793Z,5.93
2018-06-04T17:03:17.286Z,4.13
2018-06-04T17:06:42.056Z,6.77
2018-06-04T17:10:07.498Z,6.87
2018-06-04T17:13:32.317Z,5.70
2018-06-04T17:16:57.741Z,6.07
2018-06-04T17:20:24.471Z,8.13
2018-06-04T17:23:49.493Z,6.37
2018-06-04T17:27:14.385Z,7.57
2018-06-04T17:30:39.192Z,6.03
2018-06-04T17:34:04.350Z,7.97
2018-06-04T17:37:29.974Z,6.23
2018-06-04T17:40:54.983Z,5.80
2018-06-04T17:48:50.464Z,4.00
2018-06-04T17:52:16.413Z,7.83
2018-06-04T17:55:41.374Z,4.63
2018-06-04T17:59:07.512Z,5.57
2018-06-04T18:02:33.214Z,4.50
2018-06-04T18:05:58.138Z,3.20
2018-06-04T18:09:22.916Z,5.57
2018-06-04T18:12:48.524Z,4.37
2018-06-04T18:16:13.359Z,4.03
2018-06-04T18:19:39.015Z,5.67
2018-06-04T18:23:05.377Z,4.33
2018-06-04T18:26:31.126Z,3.87
2018-06-04T18:29:55.931Z,3.87
2018-06-04T18:33:20.866Z,3.43
2018-06-04T18:36:45.759Z,3.70
2018-06-04T18:40:10.684Z,3.53
2018-06-04T18:43:35.596Z,3.67
2018-06-04T18:47:00.584Z,3.63
2018-06-04T18:50:25.399Z,3.73
2018-06-04T18:53:51.508Z,4.00
2018-06-04T18:57:17.607Z,3.93
2018-06-04T19:00:42.923Z,3.50
2018-06-04T19:04:08.542Z,3.37
2018-06-04T19:07:46.544Z,3.30
2018-06-04T19:11:15.154Z,4.90
2018-06-04T19:14:43.740Z,4.80
2018-06-04T19:18:10.934Z,4.47
2018-06-04T19:21:35.347Z,3.70
2018-06-04T19:25:00.186Z,4.93
2018-06-04T19:28:24.980Z,5.50
2018-06-04T19:31:49.818Z,4.23
2018-06-04T19:35:14.616Z,3.60
2018-06-04T19:38:39.372Z,4.67
2018-06-04T19:42:04.163Z,4.03
2018-06-04T19:45:28.970Z,4.47
2018-06-04T19:48:53.761Z,6.27
2018-06-04T19:52:18.558Z,4.03
2018-06-04T19:55:43.562Z,4.50
2018-06-04T19:59:08.386Z,5.80
2018-06-04T20:02:55.549Z,6.17
2018-06-04T20:06:28.808Z,5.63
2018-06-04T20:09:53.747Z,5.40
2018-06-04T20:13:18.600Z,4.23
2018-06-04T20:16:43.491Z,4.20
2018-06-04T20:20:08.967Z,4.67
2018-06-04T20:23:33.738Z,5.00
2018-06-04T20:26:58.417Z,5.47
2018-06-04T20:30:23.186Z,6.17
2018-06-04T20:33:48.005Z,4.67
2018-06-04T20:37:12.373Z,4.93
2018-06-04T20:40:37.108Z,5.17
2018-06-04T20:44:01.821Z,5.67
2018-06-04T20:47:26.817Z,5.00
2018-06-04T20:50:51.713Z,6.50
2018-06-04T20:54:16.491Z,5.40
2018-06-04T20:57:43.768Z,9.07
2018-06-04T21:01:08.311Z,5.97
2018-06-04T21:04:33.165Z,5.97
2018-06-04T21:07:57.959Z,7.20
2018-06-04T21:11:22.969Z,6.30
2018-06-04T21:14:47.798Z,6.27
2018-06-04T21:18:12.765Z,5.23
2018-06-04T21:21:37.560Z,4.97
2018-06-04T21:25:02.001Z,5.30
2018-06-04T21:28:26.980Z,4.97
2018-06-04T21:31:52.003Z,5.57
2018-06-04T21:35:17.006Z,6.23
2018-06-04T21:38:41.945Z,6.13
2018-06-04T21:42:06.500Z,6.23
2018-06-04T21:45:31.424Z,7.33
2018-06-04T21:48:56.211Z,5.97
2018-06-04T21:52:21.004Z,8.70
2018-06-04T21:55:45.802Z,6.20
2018-06-04T21:59:10.326Z,6.07
2018-06-04T22:02:34.902Z,5.83
2018-06-04T22:05:59.746Z,5.33
2018-06-04T22:09:24.641Z,5.10
2018-06-04T22:12:49.510Z,5.87
2018-06-04T22:16:14.310Z,5.47
2018-06-04T22:19:39.064Z,5.30
2018-06-04T22:23:03.683Z,5.47
2018-06-04T22:26:28.465Z,5.20
2018-06-04T22:29:53.510Z,4.70
2018-06-04T22:33:18.348Z,4.90
2018-06-04T22:36:42.970Z,4.83
2018-06-04T22:40:07.796Z,4.53
2018-06-04T22:43:32.533Z,5.27
2018-06-04T22:46:57.391Z,5.30
2018-06-04T22:50:22.308Z,5.10
2018-06-04T22:53:47.112Z,5.33
2018-06-04T22:57:11.862Z,5.70
2018-06-04T23:00:36.331Z,6.40
2018-06-04T23:04:01.148Z,6.40
2018-06-04T23:07:25.933Z,7.10
2018-06-04T23:10:51.876Z,6.67
2018-06-04T23:14:16.626Z,6.57
2018-06-04T23:17:41.512Z,6.23
2018-06-04T23:21:06.076Z,7.00
2018-06-04T23:24:30.419Z,6.30
2018-06-04T23:27:55.259Z,5.43
2018-06-04T23:31:19.984Z,6.60
2018-06-04T23:34:44.787Z,7.43
2018-06-04T23:38:09.492Z,9.47
2018-06-04T23:41:34.266Z,7.07
2018-06-04T23:44:58.726Z,9.17
2018-06-04T23:48:23.669Z,7.83
2018-06-04T23:51:48.546Z,8.27
2018-06-04T23:55:13.820Z,9.53
2018-06-04T23:58:39.108Z,6.53
